Time,TemperatureF,DewpointF,PressureIn,WindDirection,WindDirectionDegrees,WindSpeedMPH,WindSpeedGustMPH,Humidity,HourlyPrecipIn,Conditions,Clouds,dailyrainin,SoftwareType,DateUTC
2013-01-13 00:00:00,49.6,46.2,29.74,NE,45,8.7,8.7,88,0.99,,---,0.00,VWS V14.01,2013-01-13 06:00:00,
2013-01-13 00:01:00,49.5,46.1,29.74,NE,45,10.3,10.3,88,0.99,,---,0.00,VWS V14.01,2013-01-13 06:01:00,
2013-01-13 00:02:00,49.5,46.1,29.74,ENE,68,8.5,11.0,88,0.99,,---,0.00,VWS V14.01,2013-01-13 06:02:00,
2013-01-13 00:03:00,48.9,45.5,29.74,NE,45,7.6,8.7,88,0.91,,---,0.00,VWS V14.01,2013-01-13 06:03:00,
2013-01-13 00:04:00,48.7,45.3,29.74,ENE,68,6.5,11.0,88,0.99,,---,0.08,VWS V14.01,2013-01-13 06:04:00,
2013-01-13 00:05:00,48.7,45.3,29.74,NNE,22,6.5,9.6,88,0.91,,---,0.08,VWS V14.01,2013-01-13 06:05:00,
2013-01-13 00:06:00,48.6,45.2,29.74,ESE,112,5.8,12.1,88,0.91,,---,0.08,VWS V14.01,2013-01-13 06:06:00,
2013-01-13 00:07:00,48.7,45.7,29.74,ENE,68,5.6,7.4,89,0.87,,---,0.08,VWS V14.01,2013-01-13 06:07:00,
2013-01-13 00:08:00,48.7,45.7,29.74,ENE,68,7.6,11.0,89,0.83,,---,0.08,VWS V14.01,2013-01-13 06:08:00,
2013-01-13 00:09:00,48.6,45.5,29.74,North,0,6.5,7.6,89,0.87,,---,0.12,VWS V14.01,2013-01-13 06:09:00,
2013-01-13 00:10:00,48.4,45.6,29.74,NE,45,7.6,7.8,90,0.87,,---,0.12,VWS V14.01,2013-01-13 06:10:00,
2013-01-13 00:11:00,48.4,45.6,29.74,NE,45,7.6,7.6,90,0.78,,---,0.12,VWS V14.01,2013-01-13 06:11:00,
2013-01-13 00:12:00,48.2,45.4,29.74,ENE,68,7.6,7.6,90,0.78,,---,0.12,VWS V14.01,2013-01-13 06:12:00,
2013-01-13 00:13:00,48.2,45.7,29.71,ENE,68,5.6,7.6,91,0.78,,---,0.12,VWS V14.01,2013-01-13 06:13:00,
2013-01-13 00:14:00,48.2,45.7,29.71,NNE,22,4.7,6.0,91,0.78,,---,0.12,VWS V14.01,2013-01-13 06:14:00,
2013-01-13 00:15:00,48.2,45.7,29.71,ENE,68,5.8,5.8,91,0.78,,---,0.12,VWS V14.01,2013-01-13 06:15:00,
2013-01-13 00:16:00,48.2,45.7,29.71,NE,45,5.8,6.3,91,0.70,,---,0.12,VWS V14.01,2013-01-13 06:16:00,
2013-01-13 00:17:00,48.2,46.0,29.71,NNE,22,3.6,5.8,92,0.70,,---,0.12,VWS V14.01,2013-01-13 06:17:00,
2013-01-13 00:18:00,48.0,46.1,29.71,ENE,68,7.8,7.8,93,0.75,,---,0.17,VWS V14.01,2013-01-13 06:18:00,
2013-01-13 00:20:00,48.0,46.1,29.71,ENE,68,11.4,15.2,93,0.75,,---,0.17,VWS V14.01,2013-01-13 06:20:00,
2013-01-13 00:21:00,47.3,45.1,29.71,NE,45,5.4,11.4,92,0.75,,---,0.17,VWS V14.01,2013-01-13 06:21:00,
2013-01-13 00:22:00,47.3,45.1,29.71,ENE,68,7.8,7.8,92,0.75,,---,0.17,VWS V14.01,2013-01-13 06:22:00,
2013-01-13 00:23:00,47.3,44.8,29.71,East,90,4.3,10.5,91,0.71,,---,0.21,VWS V14.01,2013-01-13 06:23:00,
2013-01-13 00:24:00,47.3,44.8,29.71,SE,135,6.0,6.5,91,0.71,,---,0.21,VWS V14.01,2013-01-13 06:24:00,
2013-01-13 00:25:00,47.1,44.9,29.71,ENE,68,10.1,11.0,92,0.71,,---,0.21,VWS V14.01,2013-01-13 06:25:00,
2013-01-13 00:27:00,47.1,44.9,29.71,ENE,68,6.5,10.1,92,0.71,,---,0.21,VWS V14.01,2013-01-13 06:27:00,
2013-01-13 00:28:00,46.9,44.7,29.71,ENE,68,5.6,9.6,92,0.67,,---,0.25,VWS V14.01,2013-01-13 06:28:00,
2013-01-13 00:29:00,46.8,44.6,29.71,ENE,68,8.1,13.4,92,0.67,,---,0.25,VWS V14.01,2013-01-13 06:29:00,
2013-01-13 00:30:00,46.8,44.6,29.71,ENE,68,7.2,13.4,92,0.67,,---,0.25,VWS V14.01,2013-01-13 06:30:00,
2013-01-13 00:31:00,46.8,44.6,29.71,ENE,68,8.1,8.1,92,0.67,,---,0.25,VWS V14.01,2013-01-13 06:31:00,
2013-01-13 00:32:00,46.8,44.6,29.71,NE,45,7.4,14.8,92,0.58,,---,0.25,VWS V14.01,2013-01-13 06:32:00,
2013-01-13 00:33:00,46.6,44.4,29.71,ENE,68,8.7,10.1,92,0.58,,---,0.25,VWS V14.01,2013-01-13 06:33:00,
2013-01-13 00:34:00,46.4,44.2,29.71,East,90,8.7,11.2,92,0.58,,---,0.25,VWS V14.01,2013-01-13 06:34:00,
2013-01-13 00:35:00,46.2,44.0,29.71,NE,45,8.5,15.2,92,0.58,,---,0.29,VWS V14.01,2013-01-13 06:35:00,
2013-01-13 00:36:00,46.2,44.0,29.71,NNE,22,4.9,10.1,92,0.58,,---,0.29,VWS V14.01,2013-01-13 06:36:00,
2013-01-13 00:37:00,46.0,43.8,29.71,ENE,68,11.0,11.0,92,0.54,,---,0.29,VWS V14.01,2013-01-13 06:37:00,
2013-01-13 00:38:00,46.0,43.8,29.71,ENE,68,11.0,11.0,92,0.54,,---,0.29,VWS V14.01,2013-01-13 06:38:00,
2013-01-13 00:39:00,46.0,43.8,29.71,NNW,338,11.0,11.0,92,0.54,,---,0.29,VWS V14.01,2013-01-13 06:39:00,
2013-01-13 00:40:00,45.9,43.7,29.71,East,90,8.1,18.6,92,0.54,,---,0.29,VWS V14.01,2013-01-13 06:40:00,
2013-01-13 00:41:00,45.7,43.5,29.71,NNE,22,4.0,10.1,92,0.54,,---,0.29,VWS V14.01,2013-01-13 06:41:00,
2013-01-13 00:42:00,45.5,43.3,29.76,ENE,68,9.8,9.8,92,0.46,,---,0.29,VWS V14.01,2013-01-13 06:42:00,
2013-01-13 00:43:00,45.5,43.3,29.76,ENE,68,9.8,9.8,92,0.46,,---,0.29,VWS V14.01,2013-01-13 06:43:00,
2013-01-13 00:44:00,45.3,42.8,29.76,ENE,68,7.6,10.7,91,0.46,,---,0.29,VWS V14.01,2013-01-13 06:44:00,
2013-01-13 00:45:00,45.3,42.8,29.76,ENE,68,10.3,11.9,91,0.50,,---,0.33,VWS V14.01,2013-01-13 06:45:00,
2013-01-13 00:46:00,45.1,42.7,29.76,ENE,68,10.5,12.1,91,0.50,,---,0.33,VWS V14.01,2013-01-13 06:46:00,
2013-01-13 00:47:00,44.8,42.3,29.76,NE,45,7.6,10.7,91,0.50,,---,0.33,VWS V14.01,2013-01-13 06:47:00,
2013-01-13 00:48:00,44.8,42.0,29.76,ENE,68,8.5,10.7,90,0.50,,---,0.33,VWS V14.01,2013-01-13 06:48:00,
2013-01-13 00:49:00,44.6,41.8,29.76,ENE,68,12.3,12.3,90,0.50,,---,0.33,VWS V14.01,2013-01-13 06:49:00,
2013-01-13 00:50:00,44.2,41.5,29.76,ENE,68,8.1,13.0,90,0.50,,---,0.33,VWS V14.01,2013-01-13 06:50:00,
2013-01-13 00:51:00,44.2,41.5,29.76,NE,45,17.0,17.0,90,0.45,,---,0.33,VWS V14.01,2013-01-13 06:51:00,
2013-01-13 00:52:00,43.9,40.8,29.76,North,0,13.6,13.6,89,0.49,,---,0.37,VWS V14.01,2013-01-13 06:52:00,
2013-01-13 00:53:00,43.9,40.8,29.76,North,0,13.6,13.6,89,0.49,,---,0.37,VWS V14.01,2013-01-13 06:53:00,
2013-01-13 00:54:00,43.7,40.7,29.76,ENE,68,6.5,13.6,89,0.49,,---,0.37,VWS V14.01,2013-01-13 06:54:00,
2013-01-13 00:55:00,43.7,40.7,29.76,NE,45,8.5,8.5,89,0.49,,---,0.37,VWS V14.01,2013-01-13 06:55:00,
2013-01-13 00:56:00,43.7,41.0,29.76,ENE,68,10.3,10.3,90,0.49,,---,0.37,VWS V14.01,2013-01-13 06:56:00,
2013-01-13 00:57:00,43.7,41.0,29.74,East,90,3.8,8.1,90,0.42,,---,0.42,VWS V14.01,2013-01-13 06:57:00,
2013-01-13 00:58:00,43.7,41.0,29.74,ENE,68,7.8,8.1,90,0.42,,---,0.42,VWS V14.01,2013-01-13 06:58:00,
2013-01-13 00:59:00,43.7,41.2,29.74,ENE,68,6.3,9.8,91,0.42,,---,0.42,VWS V14.01,2013-01-13 06:59:00,
2013-01-13 01:00:00,43.5,41.1,29.74,ESE,112,6.7,7.2,91,0.42,,---,0.42,VWS V14.01,2013-01-13 07:00:00,
2013-01-13 01:01:00,43.5,41.1,29.74,ENE,68,7.4,7.8,91,0.42,,---,0.42,VWS V14.01,2013-01-13 07:01:00,
2013-01-13 01:02:00,43.3,40.9,29.74,ENE,68,6.0,6.3,91,0.42,,---,0.42,VWS V14.01,2013-01-13 07:02:00,
2013-01-13 01:03:00,43.3,40.9,29.74,NE,45,6.0,6.3,91,0.42,,---,0.42,VWS V14.01,2013-01-13 07:03:00,
2013-01-13 01:04:00,43.3,40.9,29.74,ESE,112,5.4,8.1,91,0.42,,---,0.42,VWS V14.01,2013-01-13 07:04:00,
2013-01-13 01:05:00,43.3,40.9,29.74,NE,45,10.5,10.5,91,0.34,,---,0.42,VWS V14.01,2013-01-13 07:05:00,
2013-01-13 01:06:00,43.2,40.7,29.74,NE,45,7.6,10.5,91,0.34,,---,0.42,VWS V14.01,2013-01-13 07:06:00,
2013-01-13 01:07:00,43.2,41.0,29.74,East,90,8.1,8.1,92,0.34,,---,0.42,VWS V14.01,2013-01-13 07:07:00,
2013-01-13 01:08:00,43.2,41.0,29.74,ENE,68,5.4,8.1,92,0.34,,---,0.42,VWS V14.01,2013-01-13 07:08:00,
2013-01-13 01:09:00,43.0,40.8,29.74,ENE,68,5.6,9.6,92,0.34,,---,0.42,VWS V14.01,2013-01-13 07:09:00,
2013-01-13 01:10:00,43.0,40.8,29.74,ENE,68,7.4,8.7,92,0.33,,---,0.45,VWS V14.01,2013-01-13 07:10:00,
2013-01-13 01:11:00,42.8,40.6,29.74,ENE,68,5.8,12.3,92,0.33,,---,0.45,VWS V14.01,2013-01-13 07:11:00,
2013-01-13 01:12:00,42.8,40.9,29.76,ESE,112,4.7,6.5,93,0.33,,---,0.45,VWS V14.01,2013-01-13 07:12:00,
2013-01-13 01:13:00,42.8,40.9,29.76,ESE,112,5.4,6.5,93,0.33,,---,0.45,VWS V14.01,2013-01-13 07:13:00,
2013-01-13 01:14:00,42.8,40.9,29.76,ESE,112,7.6,11.9,93,0.33,,---,0.45,VWS V14.01,2013-01-13 07:14:00,
2013-01-13 01:15:00,42.8,40.9,29.76,ENE,68,5.4,9.8,93,0.38,,---,0.50,VWS V14.01,2013-01-13 07:15:00,
2013-01-13 01:16:00,42.8,40.9,29.76,ESE,112,5.4,6.0,93,0.38,,---,0.50,VWS V14.01,2013-01-13 07:16:00,
2013-01-13 01:17:00,42.8,40.9,29.76,ENE,68,12.3,15.2,93,0.38,,---,0.50,VWS V14.01,2013-01-13 07:17:00,
2013-01-13 01:18:00,42.6,41.0,29.76,ENE,68,12.3,15.2,94,0.38,,---,0.50,VWS V14.01,2013-01-13 07:18:00,
2013-01-13 01:19:00,42.6,41.0,29.76,ESE,112,6.5,12.3,94,0.33,,---,0.50,VWS V14.01,2013-01-13 07:19:00,
2013-01-13 01:21:00,42.6,41.0,29.76,East,90,10.3,10.3,94,0.33,,---,0.50,VWS V14.01,2013-01-13 07:21:00,
2013-01-13 01:22:00,42.6,41.0,29.76,ESE,112,10.7,10.7,94,0.33,,---,0.50,VWS V14.01,2013-01-13 07:22:00,
2013-01-13 01:23:00,42.6,41.0,29.76,ESE,112,5.8,10.7,94,0.33,,---,0.50,VWS V14.01,2013-01-13 07:23:00,
2013-01-13 01:24:00,42.6,41.3,29.76,ESE,112,5.8,7.2,95,0.29,,---,0.50,VWS V14.01,2013-01-13 07:24:00,
2013-01-13 01:25:00,42.6,41.3,29.76,ESE,112,5.8,7.6,95,0.29,,---,0.50,VWS V14.01,2013-01-13 07:25:00,
2013-01-13 01:26:00,42.6,41.3,29.76,ENE,68,5.4,12.8,95,0.29,,---,0.50,VWS V14.01,2013-01-13 07:26:00,
2013-01-13 01:27:00,42.4,41.1,29.76,ESE,112,6.0,12.3,95,0.29,,---,0.50,VWS V14.01,2013-01-13 07:27:00,
2013-01-13 01:29:00,42.4,41.1,29.76,ESE,112,7.6,12.3,95,0.29,,---,0.50,VWS V14.01,2013-01-13 07:29:00,
2013-01-13 01:30:00,42.4,41.4,29.74,ESE,112,6.5,7.8,96,0.25,,---,0.50,VWS V14.01,2013-01-13 07:30:00,
2013-01-13 01:31:00,42.4,41.4,29.74,ESE,112,13.2,13.2,96,0.29,,---,0.54,VWS V14.01,2013-01-13 07:31:00,
2013-01-13 01:32:00,42.3,40.9,29.74,ENE,68,4.3,9.4,95,0.29,,---,0.54,VWS V14.01,2013-01-13 07:32:00,
2013-01-13 01:33:00,42.3,40.9,29.74,NNE,22,5.6,9.4,95,0.29,,---,0.54,VWS V14.01,2013-01-13 07:33:00,
2013-01-13 01:34:00,42.3,40.9,29.74,NE,45,7.8,7.8,95,0.29,,---,0.54,VWS V14.01,2013-01-13 07:34:00,
2013-01-13 01:35:00,42.1,40.8,29.74,ENE,68,4.9,7.8,95,0.29,,---,0.54,VWS V14.01,2013-01-13 07:35:00,
2013-01-13 01:36:00,42.1,40.8,29.74,ENE,68,6.3,9.2,95,0.25,,---,0.54,VWS V14.01,2013-01-13 07:36:00,
2013-01-13 01:37:00,42.1,40.8,29.74,ENE,68,6.5,7.2,95,0.25,,---,0.54,VWS V14.01,2013-01-13 07:37:00,
2013-01-13 01:38:00,42.1,40.8,29.74,ESE,112,6.3,7.2,95,0.25,,---,0.54,VWS V14.01,2013-01-13 07:38:00,
2013-01-13 01:39:00,42.1,40.8,29.74,NE,45,5.6,7.4,95,0.25,,---,0.54,VWS V14.01,2013-01-13 07:39:00,
2013-01-13 01:40:00,42.1,40.8,29.74,ESE,112,3.8,6.5,95,0.25,,---,0.54,VWS V14.01,2013-01-13 07:40:00,
2013-01-13 01:41:00,42.1,41.0,29.74,ENE,68,13.0,13.0,96,0.29,,---,0.58,VWS V14.01,2013-01-13 07:41:00,
2013-01-13 01:42:00,41.9,40.8,29.74,ESE,112,4.3,8.5,96,0.29,,---,0.58,VWS V14.01,2013-01-13 07:42:00,
2013-01-13 01:43:00,41.9,40.8,29.74,ESE,112,4.7,8.5,96,0.29,,---,0.58,VWS V14.01,2013-01-13 07:43:00,
2013-01-13 01:44:00,42.1,41.0,29.74,SSE,158,6.3,8.7,96,0.29,,---,0.58,VWS V14.01,2013-01-13 07:44:00,
2013-01-13 01:45:00,42.1,41.0,29.74,ESE,112,8.7,8.7,96,0.29,,---,0.58,VWS V14.01,2013-01-13 07:45:00,
2013-01-13 01:46:00,41.9,40.8,29.74,ESE,112,6.5,10.1,96,0.25,,---,0.58,VWS V14.01,2013-01-13 07:46:00,
2013-01-13 01:47:00,41.9,40.8,29.74,ESE,112,5.8,8.5,96,0.25,,---,0.58,VWS V14.01,2013-01-13 07:47:00,
2013-01-13 01:48:00,41.9,40.8,29.74,SSE,158,4.7,8.5,96,0.25,,---,0.58,VWS V14.01,2013-01-13 07:48:00,
2013-01-13 01:49:00,41.9,40.8,29.74,ENE,68,4.3,5.4,96,0.25,,---,0.58,VWS V14.01,2013-01-13 07:49:00,
2013-01-13 01:50:00,41.7,40.7,29.74,ENE,68,6.7,9.6,96,0.25,,---,0.58,VWS V14.01,2013-01-13 07:50:00,
2013-01-13 01:51:00,41.7,40.7,29.74,NE,45,9.8,9.8,96,0.25,,---,0.58,VWS V14.01,2013-01-13 07:51:00,
2013-01-13 01:52:00,41.7,40.7,29.74,ESE,112,4.9,4.9,96,0.21,,---,0.58,VWS V14.01,2013-01-13 07:52:00,
2013-01-13 01:53:00,41.7,40.7,29.74,ENE,68,4.0,4.9,96,0.21,,---,0.58,VWS V14.01,2013-01-13 07:53:00,
2013-01-13 01:54:00,41.7,40.7,29.74,ENE,68,3.1,6.0,96,0.21,,---,0.58,VWS V14.01,2013-01-13 07:54:00,
2013-01-13 01:55:00,41.7,40.7,29.74,ENE,68,7.2,7.6,96,0.21,,---,0.58,VWS V14.01,2013-01-13 07:55:00,
2013-01-13 01:56:00,41.5,40.5,29.74,ENE,68,7.8,10.5,96,0.21,,---,0.58,VWS V14.01,2013-01-13 07:56:00,
2013-01-13 01:57:00,41.4,40.3,29.74,ENE,68,9.4,9.4,96,0.16,,---,0.58,VWS V14.01,2013-01-13 07:57:00,
2013-01-13 01:58:00,41.4,40.3,29.76,NNE,22,7.4,9.4,96,0.16,,---,0.58,VWS V14.01,2013-01-13 07:58:00,
2013-01-13 02:00:00,41.4,40.3,29.76,ENE,68,10.1,10.5,96,0.16,,---,0.58,VWS V14.01,2013-01-13 08:00:00,
2013-01-13 02:01:00,41.2,39.9,29.76,ENE,68,11.9,11.9,95,0.20,,---,0.62,VWS V14.01,2013-01-13 08:01:00,
2013-01-13 02:02:00,41.0,39.7,29.76,ENE,68,6.5,7.4,95,0.20,,---,0.62,VWS V14.01,2013-01-13 08:02:00,
2013-01-13 02:03:00,41.0,39.7,29.76,ENE,68,5.6,7.4,95,0.20,,---,0.62,VWS V14.01,2013-01-13 08:03:00,
2013-01-13 02:04:00,41.0,39.7,29.76,NNE,22,8.7,13.4,95,0.20,,---,0.62,VWS V14.01,2013-01-13 08:04:00,
2013-01-13 02:05:00,41.0,39.7,29.76,East,90,5.6,8.7,95,0.20,,---,0.62,VWS V14.01,2013-01-13 08:05:00,
2013-01-13 02:06:00,41.0,39.7,29.76,ENE,68,4.3,7.4,95,0.20,,---,0.62,VWS V14.01,2013-01-13 08:06:00,
2013-01-13 02:07:00,41.0,39.7,29.76,ENE,68,5.4,9.8,95,0.20,,---,0.62,VWS V14.01,2013-01-13 08:07:00,
2013-01-13 02:08:00,41.0,39.7,29.76,ESE,112,5.8,9.8,95,0.20,,---,0.62,VWS V14.01,2013-01-13 08:08:00,
2013-01-13 02:09:00,41.0,39.7,29.76,NE,45,4.9,5.8,95,0.20,,---,0.62,VWS V14.01,2013-01-13 08:09:00,
2013-01-13 02:10:00,41.0,39.7,29.76,NNE,22,4.3,7.4,95,0.24,,---,0.66,VWS V14.01,2013-01-13 08:10:00,
2013-01-13 02:11:00,40.8,39.8,29.76,ENE,68,9.6,9.6,96,0.21,,---,0.66,VWS V14.01,2013-01-13 08:11:00,
2013-01-13 02:12:00,40.8,39.8,29.76,NE,45,8.7,8.7,96,0.21,,---,0.66,VWS V14.01,2013-01-13 08:12:00,
2013-01-13 02:13:00,40.6,39.6,29.76,NNE,22,10.7,10.7,96,0.21,,---,0.66,VWS V14.01,2013-01-13 08:13:00,
2013-01-13 02:14:00,40.5,39.1,29.76,ENE,68,7.6,12.3,95,0.21,,---,0.66,VWS V14.01,2013-01-13 08:14:00,
2013-01-13 02:15:00,40.5,39.1,29.76,East,90,7.2,7.6,95,0.21,,---,0.66,VWS V14.01,2013-01-13 08:15:00,
2013-01-13 02:16:00,40.6,39.3,29.76,ENE,68,10.1,10.1,95,0.16,,---,0.66,VWS V14.01,2013-01-13 08:16:00,
2013-01-13 02:17:00,40.5,39.1,29.76,East,90,6.0,6.9,95,0.16,,---,0.66,VWS V14.01,2013-01-13 08:17:00,
2013-01-13 02:18:00,40.5,39.1,29.76,ENE,68,5.4,8.7,95,0.16,,---,0.66,VWS V14.01,2013-01-13 08:18:00,
2013-01-13 02:19:00,40.5,39.1,29.76,NE,45,7.8,7.8,95,0.16,,---,0.66,VWS V14.01,2013-01-13 08:19:00,
2013-01-13 02:20:00,40.3,39.0,29.76,NE,45,9.6,10.5,95,0.16,,---,0.66,VWS V14.01,2013-01-13 08:20:00,
2013-01-13 02:21:00,40.3,39.0,29.76,ENE,68,5.8,9.6,95,0.16,,---,0.66,VWS V14.01,2013-01-13 08:21:00,
2013-01-13 02:22:00,40.1,38.8,29.76,ESE,112,5.4,7.6,95,0.16,,---,0.66,VWS V14.01,2013-01-13 08:22:00,
2013-01-13 02:23:00,40.1,38.8,29.76,East,90,6.0,7.6,95,0.16,,---,0.66,VWS V14.01,2013-01-13 08:23:00,
2013-01-13 02:24:00,40.3,39.0,29.76,ENE,68,7.2,7.6,95,0.16,,---,0.66,VWS V14.01,2013-01-13 08:24:00,
2013-01-13 02:25:00,39.9,38.6,29.76,ESE,112,4.9,10.5,95,0.16,,---,0.66,VWS V14.01,2013-01-13 08:25:00,
2013-01-13 02:26:00,39.9,38.6,29.76,ENE,68,8.1,8.1,95,0.21,,---,0.71,VWS V14.01,2013-01-13 08:26:00,
2013-01-13 02:27:00,39.9,38.3,29.76,ENE,68,5.8,10.5,94,0.21,,---,0.71,VWS V14.01,2013-01-13 08:27:00,
2013-01-13 02:29:00,39.9,38.6,29.76,NE,45,7.2,10.5,95,0.21,,---,0.71,VWS V14.01,2013-01-13 08:29:00,
2013-01-13 02:30:00,39.9,38.6,29.76,ESE,112,7.8,7.8,95,0.21,,---,0.71,VWS V14.01,2013-01-13 08:30:00,
2013-01-13 02:31:00,39.9,38.6,29.76,ESE,112,7.6,7.8,95,0.21,,---,0.71,VWS V14.01,2013-01-13 08:31:00,
2013-01-13 02:32:00,39.9,38.6,29.76,ESE,112,6.5,7.6,95,0.21,,---,0.75,VWS V14.01,2013-01-13 08:32:00,
2013-01-13 02:33:00,39.9,38.6,29.76,ESE,112,5.4,7.6,95,0.21,,---,0.75,VWS V14.01,2013-01-13 08:33:00,
2013-01-13 02:34:00,39.9,38.6,29.76,ENE,68,8.1,8.5,95,0.21,,---,0.75,VWS V14.01,2013-01-13 08:34:00,
2013-01-13 02:35:00,39.9,38.6,29.76,ENE,68,6.0,8.1,95,0.21,,---,0.75,VWS V14.01,2013-01-13 08:35:00,
2013-01-13 02:36:00,39.7,38.4,29.76,NE,45,5.4,8.7,95,0.21,,---,0.75,VWS V14.01,2013-01-13 08:36:00,
2013-01-13 02:37:00,39.7,38.4,29.76,ENE,68,4.0,5.4,95,0.21,,---,0.75,VWS V14.01,2013-01-13 08:37:00,
2013-01-13 02:38:00,39.7,38.4,29.76,NE,45,7.4,7.6,95,0.21,,---,0.75,VWS V14.01,2013-01-13 08:38:00,
2013-01-13 02:39:00,39.6,38.2,29.76,East,90,5.4,7.6,95,0.21,,---,0.75,VWS V14.01,2013-01-13 08:39:00,
2013-01-13 02:40:00,39.7,38.4,29.76,ESE,112,4.0,5.4,95,0.21,,---,0.75,VWS V14.01,2013-01-13 08:40:00,
2013-01-13 02:41:00,39.7,38.7,29.76,ESE,112,3.4,4.0,96,0.21,,---,0.75,VWS V14.01,2013-01-13 08:41:00,
2013-01-13 02:42:00,39.7,38.7,29.76,ENE,68,3.6,3.6,96,0.17,,---,0.75,VWS V14.01,2013-01-13 08:42:00,
2013-01-13 02:43:00,39.7,38.7,29.76,ENE,68,7.4,7.4,96,0.17,,---,0.75,VWS V14.01,2013-01-13 08:43:00,
2013-01-13 02:44:00,39.7,38.7,29.76,ENE,68,6.0,7.4,96,0.17,,---,0.75,VWS V14.01,2013-01-13 08:44:00,
2013-01-13 02:45:00,39.7,38.7,29.76,ENE,68,5.4,6.0,96,0.17,,---,0.75,VWS V14.01,2013-01-13 08:45:00,
2013-01-13 02:46:00,39.7,38.7,29.76,ENE,68,10.7,10.7,96,0.17,,---,0.75,VWS V14.01,2013-01-13 08:46:00,
2013-01-13 02:47:00,39.7,38.7,29.76,ENE,68,3.8,4.3,96,0.17,,---,0.75,VWS V14.01,2013-01-13 08:47:00,
2013-01-13 02:48:00,39.7,38.7,29.76,ESE,112,3.8,5.8,96,0.17,,---,0.75,VWS V14.01,2013-01-13 08:48:00,
2013-01-13 02:49:00,39.6,38.5,29.76,ENE,68,8.5,10.1,96,0.17,,---,0.75,VWS V14.01,2013-01-13 08:49:00,
2013-01-13 02:50:00,39.6,38.5,29.76,ENE,68,8.7,8.7,96,0.17,,---,0.75,VWS V14.01,2013-01-13 08:50:00,
2013-01-13 02:51:00,39.4,38.3,29.76,ENE,68,7.8,10.1,96,0.17,,---,0.75,VWS V14.01,2013-01-13 08:51:00,
2013-01-13 02:52:00,39.4,38.3,29.76,ENE,68,4.0,7.6,96,0.17,,---,0.75,VWS V14.01,2013-01-13 08:52:00,
2013-01-13 02:53:00,39.4,38.3,29.76,ENE,68,6.0,7.6,96,0.17,,---,0.75,VWS V14.01,2013-01-13 08:53:00,
2013-01-13 02:54:00,39.4,38.3,29.76,ENE,68,6.3,8.5,96,0.17,,---,0.75,VWS V14.01,2013-01-13 08:54:00,
2013-01-13 02:55:00,39.4,38.3,29.76,ESE,112,5.8,6.5,96,0.17,,---,0.75,VWS V14.01,2013-01-13 08:55:00,
2013-01-13 02:56:00,39.4,38.3,29.76,ENE,68,5.4,8.7,96,0.17,,---,0.75,VWS V14.01,2013-01-13 08:56:00,
2013-01-13 02:57:00,39.2,38.2,29.76,East,90,7.6,8.7,96,0.17,,---,0.75,VWS V14.01,2013-01-13 08:57:00,
2013-01-13 02:58:00,39.0,38.0,29.76,ENE,68,13.2,13.2,96,0.17,,---,0.75,VWS V14.01,2013-01-13 08:58:00,
2013-01-13 03:00:00,39.0,38.0,29.76,ESE,112,5.4,13.2,96,0.17,,---,0.75,VWS V14.01,2013-01-13 09:00:00,
2013-01-13 03:01:00,39.0,38.0,29.76,ENE,68,7.8,9.6,96,0.17,,---,0.75,VWS V14.01,2013-01-13 09:01:00,
2013-01-13 03:02:00,38.8,37.8,29.76,ENE,68,5.8,8.5,96,0.17,,---,0.79,VWS V14.01,2013-01-13 09:02:00,
2013-01-13 03:03:00,38.8,37.8,29.76,ESE,112,7.4,8.5,96,0.17,,---,0.79,VWS V14.01,2013-01-13 09:03:00,
2013-01-13 03:04:00,38.8,37.8,29.76,ESE,112,7.4,8.7,96,0.17,,---,0.79,VWS V14.01,2013-01-13 09:04:00,
2013-01-13 03:05:00,38.8,37.8,29.76,ESE,112,8.5,8.5,96,0.17,,---,0.79,VWS V14.01,2013-01-13 09:05:00,
2013-01-13 03:06:00,38.8,37.5,29.76,ESE,112,4.3,8.5,95,0.17,,---,0.79,VWS V14.01,2013-01-13 09:06:00,
2013-01-13 03:07:00,38.7,37.3,29.76,ESE,112,10.1,10.5,95,0.17,,---,0.79,VWS V14.01,2013-01-13 09:07:00,
2013-01-13 03:08:00,38.7,37.3,29.76,East,90,8.7,10.5,95,0.17,,---,0.79,VWS V14.01,2013-01-13 09:08:00,
2013-01-13 03:09:00,38.7,37.3,29.76,SSE,158,5.8,8.7,95,0.17,,---,0.79,VWS V14.01,2013-01-13 09:09:00,
2013-01-13 03:10:00,38.7,37.3,29.76,ENE,68,6.5,6.5,95,0.17,,---,0.79,VWS V14.01,2013-01-13 09:10:00,
2013-01-13 03:11:00,38.7,37.3,29.76,East,90,6.7,6.7,95,0.13,,---,0.79,VWS V14.01,2013-01-13 09:11:00,
2013-01-13 03:12:00,38.5,37.2,29.76,East,90,4.3,10.3,95,0.13,,---,0.79,VWS V14.01,2013-01-13 09:12:00,
2013-01-13 03:13:00,38.5,37.2,29.76,ESE,112,4.7,10.3,95,0.13,,---,0.79,VWS V14.01,2013-01-13 09:13:00,
2013-01-13 03:14:00,38.5,37.2,29.76,ENE,68,8.1,8.1,95,0.17,,---,0.83,VWS V14.01,2013-01-13 09:14:00,
2013-01-13 03:16:00,38.5,37.2,29.76,ENE,68,5.8,7.2,95,0.17,,---,0.83,VWS V14.01,2013-01-13 09:16:00,
2013-01-13 03:17:00,38.1,36.8,29.76,ENE,68,8.5,10.7,95,0.17,,---,0.83,VWS V14.01,2013-01-13 09:17:00,
2013-01-13 03:18:00,38.1,36.8,29.76,ESE,112,12.8,12.8,95,0.17,,---,0.83,VWS V14.01,2013-01-13 09:18:00,
2013-01-13 03:19:00,38.1,36.5,29.76,ESE,112,7.4,12.8,94,0.17,,---,0.83,VWS V14.01,2013-01-13 09:19:00,
2013-01-13 03:20:00,38.1,36.5,29.76,East,90,5.6,8.7,94,0.17,,---,0.83,VWS V14.01,2013-01-13 09:20:00,
2013-01-13 03:21:00,38.1,36.5,29.76,ENE,68,3.6,10.1,94,0.17,,---,0.83,VWS V14.01,2013-01-13 09:21:00,
2013-01-13 03:22:00,38.1,36.5,29.76,ESE,112,6.9,6.9,94,0.17,,---,0.83,VWS V14.01,2013-01-13 09:22:00,
2013-01-13 03:24:00,38.1,36.5,29.76,ESE,112,6.0,6.9,94,0.17,,---,0.83,VWS V14.01,2013-01-13 09:24:00,
2013-01-13 03:25:00,38.3,37.0,29.76,East,90,2.2,6.0,95,0.17,,---,0.83,VWS V14.01,2013-01-13 09:25:00,
2013-01-13 03:26:00,38.3,37.0,29.76,ENE,68,3.6,3.6,95,0.17,,---,0.83,VWS V14.01,2013-01-13 09:26:00,
2013-01-13 03:27:00,38.3,37.0,29.76,ENE,68,4.3,4.3,95,0.12,,---,0.83,VWS V14.01,2013-01-13 09:27:00,
2013-01-13 03:28:00,38.3,37.0,29.76,ESE,112,4.9,4.9,95,0.12,,---,0.83,VWS V14.01,2013-01-13 09:28:00,
2013-01-13 03:29:00,38.1,36.8,29.76,ESE,112,5.8,5.8,95,0.12,,---,0.83,VWS V14.01,2013-01-13 09:29:00,
2013-01-13 03:30:00,38.1,36.8,29.76,ESE,112,3.8,5.8,95,0.12,,---,0.83,VWS V14.01,2013-01-13 09:30:00,
2013-01-13 07:29:00,38.1,37.6,29.82,ESE,112,8.1,8.1,98,0.00,,---,0.75,VWS V14.01,2013-01-13 13:29:00,
2013-01-13 07:34:00,38.1,37.6,29.82,ESE,112,9.8,12.5,98,0.00,,---,1.12,VWS V14.01,2013-01-13 13:34:00,
2013-01-13 07:39:00,38.1,37.6,29.82,ENE,68,3.1,5.4,98,0.00,,---,1.12,VWS V14.01,2013-01-13 13:39:00,
2013-01-13 07:44:00,38.1,37.6,29.82,ENE,68,4.9,7.8,98,0.00,,---,1.12,VWS V14.01,2013-01-13 13:44:00,
2013-01-13 07:49:00,38.1,37.6,29.82,ENE,68,5.6,5.6,98,0.00,,---,1.12,VWS V14.01,2013-01-13 13:49:00,
2013-01-13 07:54:00,38.1,37.6,29.82,NE,45,7.2,8.5,98,0.00,,---,1.12,VWS V14.01,2013-01-13 13:54:00,
2013-01-13 07:59:00,38.1,37.6,29.82,ENE,68,5.4,5.4,98,0.00,,---,1.12,VWS V14.01,2013-01-13 13:59:00,
2013-01-13 08:04:00,38.1,37.6,29.82,ENE,68,7.8,7.8,98,0.00,,---,1.12,VWS V14.01,2013-01-13 14:04:00,
2013-01-13 08:09:00,38.1,37.6,29.82,ENE,68,7.6,7.6,98,0.00,,---,1.12,VWS V14.01,2013-01-13 14:09:00,
2013-01-13 08:14:00,38.1,37.6,29.82,ESE,112,5.4,10.1,98,0.00,,---,1.12,VWS V14.01,2013-01-13 14:14:00,
2013-01-13 08:19:00,38.1,37.6,29.82,ESE,112,4.9,10.1,98,0.00,,---,1.12,VWS V14.01,2013-01-13 14:19:00,
2013-01-13 08:24:00,38.1,37.6,29.82,NE,45,6.0,8.5,98,0.00,,---,1.12,VWS V14.01,2013-01-13 14:24:00,
2013-01-13 08:29:00,38.1,37.6,29.85,ENE,68,3.6,3.6,98,0.00,,---,1.12,VWS V14.01,2013-01-13 14:29:00,
2013-01-13 08:34:00,37.9,37.4,29.85,ESE,112,4.0,8.5,98,0.00,,---,1.12,VWS V14.01,2013-01-13 14:34:00,
2013-01-13 08:39:00,38.1,37.6,29.85,ENE,68,5.6,7.8,98,0.00,,---,1.12,VWS V14.01,2013-01-13 14:39:00,
2013-01-13 08:44:00,38.1,37.6,29.85,ENE,68,6.0,6.0,98,0.00,,---,1.12,VWS V14.01,2013-01-13 14:44:00,
2013-01-13 08:49:00,38.1,37.6,29.85,ESE,112,5.4,6.3,98,0.00,,---,1.12,VWS V14.01,2013-01-13 14:49:00,
2013-01-13 08:54:00,37.9,37.4,29.85,ENE,68,6.5,7.6,98,0.00,,---,1.12,VWS V14.01,2013-01-13 14:54:00,
2013-01-13 08:59:00,38.1,37.6,29.85,ESE,112,3.8,7.2,98,0.00,,---,1.12,VWS V14.01,2013-01-13 14:59:00,
2013-01-13 09:04:00,37.9,37.4,29.85,ESE,112,5.6,9.8,98,0.00,,---,1.12,VWS V14.01,2013-01-13 15:04:00,
2013-01-13 09:09:00,37.8,37.2,29.85,ESE,112,4.7,4.7,98,0.00,,---,1.12,VWS V14.01,2013-01-13 15:09:00,
2013-01-13 09:14:00,37.6,37.1,29.82,ENE,68,4.0,5.6,98,0.00,,---,1.12,VWS V14.01,2013-01-13 15:14:00,
2013-01-13 09:19:00,37.8,37.2,29.82,NE,45,4.0,6.5,98,0.00,,---,1.12,VWS V14.01,2013-01-13 15:19:00,
2013-01-13 09:24:00,37.6,37.1,29.82,ENE,68,4.9,7.2,98,0.00,,---,1.12,VWS V14.01,2013-01-13 15:24:00,
2013-01-13 09:29:00,37.6,37.1,29.82,ENE,68,5.6,6.3,98,0.00,,---,1.12,VWS V14.01,2013-01-13 15:29:00,
2013-01-13 09:34:00,37.4,36.9,29.88,NE,45,3.6,5.6,98,0.04,,---,1.16,VWS V14.01,2013-01-13 15:34:00,
2013-01-13 09:39:00,37.2,36.7,29.88,East,90,8.7,8.7,98,0.04,,---,1.16,VWS V14.01,2013-01-13 15:39:00,
2013-01-13 09:44:00,37.0,36.5,29.85,ENE,68,7.2,7.8,98,0.04,,---,1.16,VWS V14.01,2013-01-13 15:44:00,
2013-01-13 09:49:00,37.0,36.5,29.85,ESE,112,4.7,6.0,98,0.04,,---,1.16,VWS V14.01,2013-01-13 15:49:00,
2013-01-13 09:54:00,37.0,36.5,29.85,ESE,112,5.8,6.5,98,0.04,,---,1.16,VWS V14.01,2013-01-13 15:54:00,
2013-01-13 09:59:00,37.0,36.5,29.82,ESE,112,5.4,5.6,98,0.04,,---,1.16,VWS V14.01,2013-01-13 15:59:00,
2013-01-13 10:04:00,37.0,36.5,29.82,ESE,112,6.3,8.5,98,0.08,,---,1.20,VWS V14.01,2013-01-13 16:04:00,
2013-01-13 10:09:00,37.0,36.5,29.82,ENE,68,4.0,5.8,98,0.08,,---,1.20,VWS V14.01,2013-01-13 16:09:00,
2013-01-13 10:14:00,36.9,36.3,29.82,ESE,112,4.5,9.4,98,0.13,,---,1.25,VWS V14.01,2013-01-13 16:14:00,
2013-01-13 10:19:00,36.9,36.3,29.82,NE,45,6.0,6.3,98,0.13,,---,1.25,VWS V14.01,2013-01-13 16:19:00,
2013-01-13 10:24:00,36.9,36.3,29.82,ENE,68,4.3,4.3,98,0.13,,---,1.25,VWS V14.01,2013-01-13 16:24:00,
2013-01-13 10:29:00,36.9,36.3,29.82,ESE,112,4.3,6.3,98,0.13,,---,1.25,VWS V14.01,2013-01-13 16:29:00,
2013-01-13 10:34:00,37.0,36.5,29.82,ESE,112,2.9,3.4,98,0.13,,---,1.25,VWS V14.01,2013-01-13 16:34:00,
2013-01-13 10:39:00,36.9,36.3,29.82,ESE,112,4.7,6.0,98,0.13,,---,1.29,VWS V14.01,2013-01-13 16:39:00,
2013-01-13 10:44:00,36.9,36.3,29.85,NNE,22,4.3,4.3,98,0.17,,---,1.33,VWS V14.01,2013-01-13 16:44:00,
2013-01-13 10:49:00,36.7,36.2,29.85,ESE,112,3.4,3.6,98,0.17,,---,1.33,VWS V14.01,2013-01-13 16:49:00,
2013-01-13 10:54:00,36.5,36.0,29.85,ENE,68,3.6,3.8,98,0.17,,---,1.33,VWS V14.01,2013-01-13 16:54:00,
2013-01-13 10:59:00,36.5,36.0,29.82,ENE,68,7.6,7.6,98,0.17,,---,1.33,VWS V14.01,2013-01-13 16:59:00,
2013-01-13 11:04:00,36.1,35.6,29.82,NE,45,5.8,5.8,98,0.17,,---,1.37,VWS V14.01,2013-01-13 17:04:00,
2013-01-13 11:09:00,36.0,35.5,29.82,ENE,68,6.0,7.8,98,0.21,,---,1.41,VWS V14.01,2013-01-13 17:09:00,
2013-01-13 11:14:00,35.8,35.3,29.85,NE,45,5.8,11.0,98,0.16,,---,1.41,VWS V14.01,2013-01-13 17:14:00,
2013-01-13 11:19:00,35.8,35.3,29.85,NNE,22,6.0,7.2,98,0.16,,---,1.41,VWS V14.01,2013-01-13 17:19:00,
2013-01-13 11:24:00,35.4,34.9,29.85,ENE,68,4.3,5.8,98,0.16,,---,1.41,VWS V14.01,2013-01-13 17:24:00,
2013-01-13 11:29:00,35.4,34.9,29.85,NNE,22,4.0,4.9,98,0.16,,---,1.41,VWS V14.01,2013-01-13 17:29:00,
2013-01-13 11:34:00,35.4,34.9,29.85,NE,45,7.8,7.8,98,0.16,,---,1.41,VWS V14.01,2013-01-13 17:34:00,
2013-01-13 11:39:00,34.9,34.1,29.85,NE,45,7.2,7.2,97,0.16,,---,1.45,VWS V14.01,2013-01-13 17:39:00,
2013-01-13 11:44:00,34.7,33.9,29.85,ENE,68,4.0,6.0,97,0.12,,---,1.45,VWS V14.01,2013-01-13 17:44:00,
2013-01-13 11:49:00,34.3,33.3,29.85,NNE,22,7.6,10.3,96,0.12,,---,1.45,VWS V14.01,2013-01-13 17:49:00,
2013-01-13 11:54:00,34.0,32.2,29.85,ENE,68,10.3,10.3,93,0.12,,---,1.45,VWS V14.01,2013-01-13 17:54:00,
2013-01-13 11:59:00,33.8,31.7,29.85,ENE,68,7.4,12.3,92,0.16,,---,1.49,VWS V14.01,2013-01-13 17:59:00,
2013-01-13 12:04:00,33.6,31.5,29.85,ENE,68,12.5,12.5,92,0.12,,---,1.49,VWS V14.01,2013-01-13 18:04:00,
2013-01-13 12:09:00,33.8,31.7,29.85,ENE,68,5.8,5.8,92,0.12,,---,1.49,VWS V14.01,2013-01-13 18:09:00,
2013-01-13 12:14:00,33.6,31.8,29.85,ENE,68,6.3,8.5,93,0.08,,---,1.49,VWS V14.01,2013-01-13 18:14:00,
2013-01-13 12:19:00,33.6,31.8,29.85,ENE,68,5.8,5.8,93,0.08,,---,1.49,VWS V14.01,2013-01-13 18:19:00,
2013-01-13 12:24:00,33.4,31.6,29.85,NE,45,6.5,6.9,93,0.08,,---,1.49,VWS V14.01,2013-01-13 18:24:00,
2013-01-13 12:29:00,33.4,31.6,29.85,NNE,22,7.8,7.8,93,0.08,,---,1.49,VWS V14.01,2013-01-13 18:29:00,
2013-01-13 12:34:00,33.3,31.7,29.85,ESE,112,5.8,5.8,94,0.08,,---,1.49,VWS V14.01,2013-01-13 18:34:00,
2013-01-13 12:39:00,33.4,31.9,29.85,NE,45,5.8,7.8,94,0.04,,---,1.49,VWS V14.01,2013-01-13 18:39:00,
2013-01-13 12:44:00,33.6,32.1,29.85,NNE,22,5.8,5.8,94,0.08,,---,1.53,VWS V14.01,2013-01-13 18:44:00,
2013-01-13 12:49:00,33.8,32.5,29.85,ENE,68,4.9,6.0,95,0.08,,---,1.53,VWS V14.01,2013-01-13 18:49:00,
2013-01-13 12:54:00,33.8,32.8,29.85,ENE,68,4.0,4.0,96,0.08,,---,1.53,VWS V14.01,2013-01-13 18:54:00,
2013-01-13 12:59:00,33.8,32.5,29.85,NNE,22,5.4,5.4,95,0.04,,---,1.53,VWS V14.01,2013-01-13 18:59:00,
2013-01-13 13:04:00,33.8,32.5,29.85,ENE,68,4.0,6.0,95,0.04,,---,1.53,VWS V14.01,2013-01-13 19:04:00,
2013-01-13 13:09:00,33.6,32.1,29.85,ENE,68,5.8,5.8,94,0.04,,---,1.53,VWS V14.01,2013-01-13 19:09:00,
2013-01-13 13:14:00,33.8,31.7,29.85,ENE,68,15.7,15.7,92,0.04,,---,1.53,VWS V14.01,2013-01-13 19:14:00,
2013-01-13 13:19:00,33.8,31.2,29.85,East,90,3.6,3.6,90,0.04,,---,1.53,VWS V14.01,2013-01-13 19:19:00,
2013-01-13 13:24:00,33.8,31.2,29.85,ESE,112,3.8,3.8,90,0.04,,---,1.53,VWS V14.01,2013-01-13 19:24:00,
2013-01-13 13:29:00,33.8,30.9,29.88,NE,45,0.0,3.8,89,0.04,,---,1.53,VWS V14.01,2013-01-13 19:29:00,
2013-01-13 13:34:00,33.6,30.7,29.88,ESE,112,0.0,0.0,89,0.04,,---,1.53,VWS V14.01,2013-01-13 19:34:00,
2013-01-13 13:39:00,33.8,30.9,29.88,East,90,0.0,0.0,89,0.04,,---,1.53,VWS V14.01,2013-01-13 19:39:00,
2013-01-13 13:44:00,33.8,30.9,29.88,East,90,0.0,0.0,89,0.00,,---,1.53,VWS V14.01,2013-01-13 19:44:00,
2013-01-13 13:49:00,33.6,30.7,29.88,ENE,68,0.0,0.0,89,0.00,,---,1.53,VWS V14.01,2013-01-13 19:49:00,
2013-01-13 13:54:00,33.8,30.9,29.88,NE,45,0.0,0.0,89,0.00,,---,1.53,VWS V14.01,2013-01-13 19:54:00,
2013-01-13 13:59:00,33.6,30.5,29.88,ESE,112,0.0,0.0,88,0.00,,---,1.53,VWS V14.01,2013-01-13 19:59:00,
2013-01-13 14:04:00,33.6,30.5,29.88,NE,45,0.0,0.0,88,0.00,,---,1.53,VWS V14.01,2013-01-13 20:04:00,
2013-01-13 14:09:00,33.8,30.9,29.88,ENE,68,0.0,0.0,89,0.00,,---,1.53,VWS V14.01,2013-01-13 20:09:00,
2013-01-13 14:14:00,33.8,31.2,29.88,NE,45,0.0,0.0,90,0.00,,---,1.53,VWS V14.01,2013-01-13 20:14:00,
2013-01-13 14:19:00,33.8,31.2,29.88,NNE,22,0.0,0.0,90,0.00,,---,1.53,VWS V14.01,2013-01-13 20:19:00,
2013-01-13 14:24:00,33.6,31.0,29.88,ENE,68,0.0,0.0,90,0.00,,---,1.53,VWS V14.01,2013-01-13 20:24:00,
2013-01-13 14:29:00,33.6,30.7,29.88,ENE,68,0.0,0.0,89,0.00,,---,1.53,VWS V14.01,2013-01-13 20:29:00,
2013-01-13 14:34:00,33.6,31.0,29.88,NE,45,0.0,0.0,90,0.00,,---,1.53,VWS V14.01,2013-01-13 20:34:00,
2013-01-13 14:39:00,33.6,31.0,29.88,NNE,22,0.0,0.0,90,0.00,,---,1.53,VWS V14.01,2013-01-13 20:39:00,
2013-01-13 14:44:00,33.3,29.8,29.94,East,90,0.0,0.0,87,0.00,,---,1.53,VWS V14.01,2013-01-13 20:44:00,
2013-01-13 14:49:00,33.3,29.8,29.94,NNE,22,0.0,0.0,87,0.00,,---,1.53,VWS V14.01,2013-01-13 20:49:00,
2013-01-13 14:53:00,33.3,30.1,29.94,ENE,68,0.0,0.0,88,0.00,,---,1.53,VWS V14.01,2013-01-13 20:53:00,
2013-01-13 14:58:00,32.9,29.5,29.91,NNE,22,0.0,0.0,87,0.00,,---,1.53,VWS V14.01,2013-01-13 20:58:00,
2013-01-13 15:03:00,32.9,29.5,29.91,ENE,68,0.0,0.0,87,0.00,,---,1.53,VWS V14.01,2013-01-13 21:03:00,
2013-01-13 15:08:00,32.9,29.7,29.91,NE,45,0.0,0.0,88,0.00,,---,1.53,VWS V14.01,2013-01-13 21:08:00,
2013-01-13 15:13:00,33.1,29.9,29.97,NE,45,0.0,0.0,88,0.00,,---,1.53,VWS V14.01,2013-01-13 21:13:00,
2013-01-13 15:18:00,32.9,29.7,29.97,ESE,112,0.0,0.0,88,0.00,,---,1.53,VWS V14.01,2013-01-13 21:18:00,
2013-01-13 15:23:00,32.9,29.5,29.97,NE,45,0.0,0.0,87,0.00,,---,1.53,VWS V14.01,2013-01-13 21:23:00,
2013-01-13 15:28:00,32.7,29.0,29.97,ENE,68,0.0,0.0,86,0.00,,---,1.53,VWS V14.01,2013-01-13 21:28:00,
2013-01-13 15:33:00,33.1,29.4,29.97,NNE,22,0.0,0.0,86,0.00,,---,1.53,VWS V14.01,2013-01-13 21:33:00,
2013-01-13 15:38:00,32.7,29.0,29.97,ENE,68,0.0,0.0,86,0.00,,---,1.53,VWS V14.01,2013-01-13 21:38:00,
2013-01-13 15:43:00,32.7,28.7,29.97,ENE,68,0.0,0.0,85,0.00,,---,1.53,VWS V14.01,2013-01-13 21:43:00,
2013-01-13 15:48:00,32.7,28.7,29.97,North,0,0.0,0.0,85,0.00,,---,1.53,VWS V14.01,2013-01-13 21:48:00,
2013-01-13 15:53:00,32.9,29.2,29.97,NNE,22,0.0,0.0,86,0.00,,---,1.53,VWS V14.01,2013-01-13 21:53:00,
2013-01-13 15:58:00,33.1,29.4,29.97,ENE,68,0.0,0.0,86,0.00,,---,1.53,VWS V14.01,2013-01-13 21:58:00,
2013-01-13 16:03:00,32.9,28.9,29.97,NE,45,0.0,0.0,85,0.00,,---,1.53,VWS V14.01,2013-01-13 22:03:00,
2013-01-13 16:08:00,32.9,28.9,29.97,NNE,22,0.0,0.0,85,0.00,,---,1.53,VWS V14.01,2013-01-13 22:08:00,
2013-01-13 16:13:00,32.7,28.7,30.00,NNE,22,0.0,0.0,85,0.00,,---,1.53,VWS V14.01,2013-01-13 22:13:00,
2013-01-13 16:18:00,32.7,28.4,30.00,NNE,22,0.0,0.0,84,0.00,,---,1.53,VWS V14.01,2013-01-13 22:18:00,
2013-01-13 16:23:00,32.7,28.1,30.00,NE,45,0.0,0.0,83,0.00,,---,1.53,VWS V14.01,2013-01-13 22:23:00,
2013-01-13 16:28:00,32.5,28.2,30.00,NNE,22,0.0,0.0,84,0.00,,---,1.53,VWS V14.01,2013-01-13 22:28:00,
2013-01-13 16:33:00,32.5,28.5,30.00,ESE,112,10.1,10.1,85,0.00,,---,1.53,VWS V14.01,2013-01-13 22:33:00,
2013-01-13 16:38:00,32.2,27.3,30.00,ENE,68,0.0,0.0,82,0.00,,---,1.53,VWS V14.01,2013-01-13 22:38:00,
2013-01-13 16:43:00,32.4,27.8,30.00,ENE,68,0.0,0.0,83,0.00,,---,1.53,VWS V14.01,2013-01-13 22:43:00,
2013-01-13 16:48:00,32.0,26.2,30.00,NE,45,0.0,0.0,79,0.00,,---,1.53,VWS V14.01,2013-01-13 22:48:00,
2013-01-13 16:53:00,32.0,25.9,30.00,NE,45,0.0,0.0,78,0.00,,---,1.53,VWS V14.01,2013-01-13 22:53:00,
2013-01-13 16:58:00,32.0,26.2,30.00,ENE,68,0.0,0.0,79,0.00,,---,1.53,VWS V14.01,2013-01-13 22:58:00,
2013-01-13 17:03:00,31.8,25.8,30.00,East,90,0.0,0.0,78,0.00,,---,1.53,VWS V14.01,2013-01-13 23:03:00,
2013-01-13 17:08:00,31.8,26.1,30.00,NNE,22,0.0,0.0,79,0.00,,---,1.53,VWS V14.01,2013-01-13 23:08:00,
2013-01-13 17:13:00,31.8,26.7,30.03,ESE,112,0.0,0.0,81,0.00,,---,1.53,VWS V14.01,2013-01-13 23:13:00,
2013-01-13 17:18:00,31.8,26.7,30.03,NE,45,1.3,1.3,81,0.00,,---,1.53,VWS V14.01,2013-01-13 23:18:00,
2013-01-13 17:23:00,31.8,26.7,30.03,ENE,68,0.0,0.0,81,0.00,,---,1.53,VWS V14.01,2013-01-13 23:23:00,
2013-01-13 17:28:00,31.8,26.7,30.03,ENE,68,0.0,0.0,81,0.00,,---,1.53,VWS V14.01,2013-01-13 23:28:00,
2013-01-13 17:33:00,31.6,26.2,30.03,NNE,22,0.0,0.0,80,0.00,,---,1.53,VWS V14.01,2013-01-13 23:33:00,
2013-01-13 17:38:00,31.6,26.5,30.03,NNE,22,0.0,0.0,81,0.00,,---,1.53,VWS V14.01,2013-01-13 23:38:00,
2013-01-13 17:43:00,31.8,26.7,30.03,NNE,22,0.0,0.0,81,0.00,,---,1.53,VWS V14.01,2013-01-13 23:43:00,
2013-01-13 17:48:00,31.6,26.2,30.03,NNE,22,0.0,0.0,80,0.00,,---,1.53,VWS V14.01,2013-01-13 23:48:00,
2013-01-13 17:53:00,31.3,24.9,30.03,NE,45,0.0,0.0,77,0.00,,---,1.53,VWS V14.01,2013-01-13 23:53:00,
2013-01-13 17:58:00,31.5,25.1,30.03,NE,45,6.3,6.3,77,0.00,,---,1.53,VWS V14.01,2013-01-13 23:58:00,
2013-01-13 18:03:00,31.1,23.8,30.06,ENE,68,0.0,0.0,74,0.00,,---,1.53,VWS V14.01,2013-01-14 00:03:00,
2013-01-13 18:08:00,31.1,24.1,30.06,ENE,68,0.0,0.0,75,0.00,,---,1.53,VWS V14.01,2013-01-14 00:08:00,
2013-01-13 18:13:00,31.1,24.8,30.06,NNE,22,0.0,0.0,77,0.00,,---,1.53,VWS V14.01,2013-01-14 00:13:00,
2013-01-13 18:18:00,30.9,24.6,30.06,NNE,22,0.0,0.0,77,0.00,,---,1.53,VWS V14.01,2013-01-14 00:18:00,
2013-01-13 18:23:00,30.9,24.6,30.06,ENE,68,0.0,0.0,77,0.00,,---,1.53,VWS V14.01,2013-01-14 00:23:00,
2013-01-13 18:28:00,30.7,24.4,30.06,NE,45,0.0,0.0,77,0.00,,---,1.53,VWS V14.01,2013-01-14 00:28:00,
2013-01-13 18:33:00,30.4,23.4,30.06,ESE,112,0.0,0.0,75,0.00,,---,1.53,VWS V14.01,2013-01-14 00:33:00,
2013-01-13 18:38:00,30.4,24.0,30.06,ENE,68,0.0,0.0,77,0.00,,---,1.53,VWS V14.01,2013-01-14 00:38:00,
2013-01-13 18:43:00,30.2,23.9,30.06,ENE,68,0.0,0.0,77,0.00,,---,1.53,VWS V14.01,2013-01-14 00:43:00,
2013-01-13 18:48:00,30.2,24.2,30.06,ENE,68,0.0,0.0,78,0.00,,---,1.53,VWS V14.01,2013-01-14 00:48:00,
2013-01-13 18:53:00,30.0,24.3,30.06,NNE,22,0.0,0.0,79,0.00,,---,1.53,VWS V14.01,2013-01-14 00:53:00,
2013-01-13 18:58:00,30.0,24.0,30.06,East,90,0.0,0.0,78,0.00,,---,1.53,VWS V14.01,2013-01-14 00:58:00,
2013-01-13 19:03:00,30.0,24.0,30.06,ENE,68,0.0,0.0,78,0.00,,---,1.53,VWS V14.01,2013-01-14 01:03:00,
2013-01-13 19:08:00,29.8,24.1,30.06,ENE,68,0.0,0.0,79,0.00,,---,1.53,VWS V14.01,2013-01-14 01:08:00,
2013-01-13 19:13:00,29.7,24.0,30.06,NE,45,0.0,0.0,79,0.00,,---,1.53,VWS V14.01,2013-01-14 01:13:00,
2013-01-13 19:18:00,29.7,24.3,30.06,ENE,68,0.0,0.0,80,0.00,,---,1.53,VWS V14.01,2013-01-14 01:18:00,
2013-01-13 19:23:00,29.7,24.0,30.06,ESE,112,0.0,0.0,79,0.00,,---,1.53,VWS V14.01,2013-01-14 01:23:00,
2013-01-13 19:28:00,29.7,24.0,30.06,NE,45,0.0,0.0,79,0.00,,---,1.53,VWS V14.01,2013-01-14 01:28:00,
2013-01-13 19:33:00,29.7,24.3,30.06,ESE,112,0.0,0.0,80,0.00,,---,1.53,VWS V14.01,2013-01-14 01:33:00,
2013-01-13 19:38:00,29.7,24.3,30.06,ENE,68,0.0,0.0,80,0.00,,---,1.53,VWS V14.01,2013-01-14 01:38:00,
2013-01-13 19:43:00,29.7,24.0,30.06,ENE,68,0.0,0.0,79,0.00,,---,1.53,VWS V14.01,2013-01-14 01:43:00,
2013-01-13 19:48:00,29.8,24.1,30.06,NE,45,0.0,0.0,79,0.00,,---,1.53,VWS V14.01,2013-01-14 01:48:00,
2013-01-13 19:53:00,29.8,24.4,30.06,NNE,22,0.0,0.0,80,0.00,,---,1.53,VWS V14.01,2013-01-14 01:53:00,
2013-01-13 19:58:00,29.8,25.0,30.06,ENE,68,0.0,0.0,82,0.00,,---,1.53,VWS V14.01,2013-01-14 01:58:00,
2013-01-13 20:03:00,29.7,24.3,30.06,NNE,22,0.0,0.0,80,0.00,,---,1.53,VWS V14.01,2013-01-14 02:03:00,
2013-01-13 20:08:00,29.5,24.1,30.06,ENE,68,0.0,0.0,80,0.00,,---,1.53,VWS V14.01,2013-01-14 02:08:00,
2013-01-13 20:13:00,29.5,24.1,30.09,NE,45,0.0,0.0,80,0.00,,---,1.53,VWS V14.01,2013-01-14 02:13:00,
2013-01-13 20:18:00,29.3,23.3,30.09,ENE,68,0.0,0.0,78,0.00,,---,1.53,VWS V14.01,2013-01-14 02:18:00,
2013-01-13 20:23:00,29.3,23.0,30.09,NNE,22,0.0,0.0,77,0.00,,---,1.53,VWS V14.01,2013-01-14 02:23:00,
2013-01-13 20:28:00,29.1,22.5,30.09,ENE,68,0.0,0.0,76,0.00,,---,1.53,VWS V14.01,2013-01-14 02:28:00,
2013-01-13 20:33:00,29.1,22.5,30.09,ENE,68,0.0,0.0,76,0.00,,---,1.53,VWS V14.01,2013-01-14 02:33:00,
2013-01-13 20:38:00,28.8,21.2,30.09,ENE,68,0.0,0.0,73,0.00,,---,1.53,VWS V14.01,2013-01-14 02:38:00,
2013-01-13 20:43:00,28.6,20.4,30.09,ENE,68,0.0,0.0,71,0.00,,---,1.53,VWS V14.01,2013-01-14 02:43:00,
2013-01-13 20:48:00,28.6,20.7,30.09,NE,45,0.0,0.0,72,0.00,,---,1.53,VWS V14.01,2013-01-14 02:48:00,
2013-01-13 20:53:00,28.2,20.0,30.09,ENE,68,0.0,0.0,71,0.00,,---,1.53,VWS V14.01,2013-01-14 02:53:00,
2013-01-13 20:58:00,27.9,19.4,30.09,ESE,112,0.0,0.0,70,0.00,,---,1.53,VWS V14.01,2013-01-14 02:58:00,
2013-01-13 21:03:00,27.9,20.0,30.09,ESE,112,0.0,0.0,72,0.00,,---,1.53,VWS V14.01,2013-01-14 03:03:00,
2013-01-13 21:08:00,27.7,20.8,30.09,NNE,22,0.0,0.0,75,0.00,,---,1.53,VWS V14.01,2013-01-14 03:08:00,
2013-01-13 21:13:00,27.7,20.5,30.09,NE,45,0.0,0.0,74,0.00,,---,1.53,VWS V14.01,2013-01-14 03:13:00,
2013-01-13 21:18:00,27.5,20.0,30.09,ENE,68,0.0,0.0,73,0.00,,---,1.53,VWS V14.01,2013-01-14 03:18:00,
2013-01-13 21:23:00,27.3,20.5,30.09,ESE,112,0.0,0.0,75,0.00,,---,1.53,VWS V14.01,2013-01-14 03:23:00,
2013-01-13 21:28:00,27.3,20.5,30.12,ENE,68,0.0,0.0,75,0.00,,---,1.53,VWS V14.01,2013-01-14 03:28:00,
2013-01-13 21:33:00,27.1,20.0,30.12,ENE,68,0.0,0.0,74,0.00,,---,1.53,VWS V14.01,2013-01-14 03:33:00,
2013-01-13 21:38:00,27.1,20.0,30.12,ENE,68,0.0,0.0,74,0.00,,---,1.53,VWS V14.01,2013-01-14 03:38:00,
2013-01-13 21:43:00,27.1,20.0,30.12,ENE,68,0.0,0.0,74,0.00,,---,1.53,VWS V14.01,2013-01-14 03:43:00,
2013-01-13 21:48:00,27.1,19.6,30.12,ENE,68,0.0,0.0,73,0.00,,---,1.53,VWS V14.01,2013-01-14 03:48:00,
2013-01-13 21:53:00,27.0,19.5,30.12,ENE,68,0.0,0.0,73,0.00,,---,1.53,VWS V14.01,2013-01-14 03:53:00,
2013-01-13 21:58:00,27.1,20.0,30.12,ESE,112,0.0,0.0,74,0.00,,---,1.53,VWS V14.01,2013-01-14 03:58:00,
2013-01-13 22:02:00,27.1,20.0,30.12,NE,45,0.0,0.0,74,0.00,,---,1.53,VWS V14.01,2013-01-14 04:02:00,
2013-01-13 22:07:00,27.1,20.0,30.12,NE,45,0.0,0.0,74,0.00,,---,1.53,VWS V14.01,2013-01-14 04:07:00,
2013-01-13 22:12:00,27.3,20.5,30.15,ENE,68,0.0,0.0,75,0.00,,---,1.53,VWS V14.01,2013-01-14 04:12:00,
2013-01-13 22:17:00,27.3,20.8,30.15,ESE,112,0.0,0.0,76,0.00,,---,1.53,VWS V14.01,2013-01-14 04:17:00,
2013-01-13 22:22:00,27.5,20.9,30.15,ENE,68,0.0,0.0,76,0.00,,---,1.53,VWS V14.01,2013-01-14 04:22:00,
2013-01-13 22:27:00,27.3,19.8,30.15,ENE,68,0.0,0.0,73,0.00,,---,1.53,VWS V14.01,2013-01-14 04:27:00,
2013-01-13 22:32:00,27.3,19.8,30.15,NE,45,0.0,0.0,73,0.00,,---,1.53,VWS V14.01,2013-01-14 04:32:00,
2013-01-13 22:37:00,27.1,19.6,30.15,ENE,68,0.0,0.0,73,0.00,,---,1.53,VWS V14.01,2013-01-14 04:37:00,
2013-01-13 22:42:00,27.3,20.1,30.15,NE,45,0.0,0.0,74,0.00,,---,1.53,VWS V14.01,2013-01-14 04:42:00,
2013-01-13 22:47:00,27.3,20.1,30.15,NE,45,0.0,0.0,74,0.00,,---,1.53,VWS V14.01,2013-01-14 04:47:00,
2013-01-13 22:52:00,27.3,20.1,30.15,ENE,68,0.0,0.0,74,0.00,,---,1.53,VWS V14.01,2013-01-14 04:52:00,
2013-01-13 22:57:00,27.3,19.8,30.15,ENE,68,0.0,0.0,73,0.00,,---,1.53,VWS V14.01,2013-01-14 04:57:00,
2013-01-13 23:00:00,27.3,19.8,30.15,ESE,112,0.0,0.0,73,0.00,,---,1.53,VWS V14.01,2013-01-14 05:00:00,
2013-01-13 23:03:00,27.5,20.6,30.15,ENE,68,0.0,0.0,75,0.00,,---,1.53,VWS V14.01,2013-01-14 05:03:00,
2013-01-13 23:08:00,27.5,20.6,30.15,ESE,112,0.0,0.0,75,0.00,,---,1.53,VWS V14.01,2013-01-14 05:08:00,
2013-01-13 23:13:00,27.5,20.6,30.15,ENE,68,0.0,0.0,75,0.00,,---,1.53,VWS V14.01,2013-01-14 05:13:00,
2013-01-13 23:18:00,27.5,20.3,30.15,NE,45,0.0,0.0,74,0.00,,---,1.53,VWS V14.01,2013-01-14 05:18:00,
2013-01-13 23:23:00,27.5,20.3,30.15,ENE,68,0.0,0.0,74,0.00,,---,1.53,VWS V14.01,2013-01-14 05:23:00,
2013-01-13 23:28:00,27.5,20.3,30.15,ENE,68,0.0,0.0,74,0.00,,---,1.53,VWS V14.01,2013-01-14 05:28:00,
2013-01-13 23:33:00,27.5,20.3,30.15,ENE,68,0.0,0.0,74,0.00,,---,1.53,VWS V14.01,2013-01-14 05:33:00,
2013-01-13 23:38:00,27.5,20.3,30.15,ESE,112,0.0,0.0,74,0.00,,---,1.53,VWS V14.01,2013-01-14 05:38:00,
2013-01-13 23:43:00,27.7,21.1,30.15,ESE,112,0.0,0.0,76,0.00,,---,1.53,VWS V14.01,2013-01-14 05:43:00,
2013-01-13 23:48:00,27.7,21.1,30.15,ESE,112,0.0,0.0,76,0.00,,---,1.53,VWS V14.01,2013-01-14 05:48:00,
2013-01-13 23:53:00,27.7,20.5,30.15,ESE,112,0.0,0.0,74,0.00,,---,1.53,VWS V14.01,2013-01-14 05:53:00,
2013-01-13 23:58:00,27.0,18.2,30.15,ESE,112,0.0,0.0,69,0.00,,---,1.53,VWS V14.01,2013-01-14 05:58:00,